createdAt,value
2022-10-25T08:30:49.150Z,11.70
2022-10-25T08:33:17.297Z,11.80
2022-10-25T08:35:45.255Z,11.80
2022-10-25T08:38:13.388Z,11.90
2022-10-25T08:40:52.009Z,12.00
2022-10-25T08:43:33.988Z,12.10
2022-10-25T08:46:05.953Z,12.20
2022-10-25T08:48:38.750Z,12.30
2022-10-25T08:51:13.491Z,12.40
2022-10-25T08:53:48.880Z,12.50
2022-10-25T08:56:19.074Z,12.60
2022-10-25T08:58:51.796Z,12.70
2022-10-25T09:01:27.501Z,12.80
2022-10-25T09:03:55.729Z,12.90
2022-10-25T09:06:35.443Z,13.00
2022-10-25T09:09:16.183Z,13.00
2022-10-25T09:11:54.222Z,13.10
2022-10-25T09:14:32.226Z,13.20
2022-10-25T09:17:08.475Z,13.30
2022-10-25T09:19:44.533Z,13.50
2022-10-25T09:22:17.805Z,13.60
2022-10-25T09:24:57.725Z,13.80
2022-10-25T09:27:34.026Z,14.00
2022-10-25T09:30:07.426Z,14.10
2022-10-25T09:32:41.061Z,14.30
2022-10-25T09:35:16.973Z,14.40
2022-10-25T09:37:49.876Z,14.40
2022-10-25T09:40:22.512Z,14.50
2022-10-25T09:42:54.942Z,14.60
2022-10-25T09:45:27.099Z,14.60
2022-10-25T09:48:05.185Z,14.60
2022-10-25T09:50:38.332Z,14.60
2022-10-25T09:53:12.621Z,14.70
2022-10-25T09:55:48.974Z,14.60
2022-10-25T09:58:21.029Z,14.60
2022-10-25T10:00:50.046Z,14.60
2022-10-25T10:03:20.913Z,14.60
2022-10-25T10:05:55.097Z,14.70
2022-10-25T10:08:23.537Z,14.70
2022-10-25T10:10:53.196Z,14.70
2022-10-25T10:13:36.343Z,14.70
2022-10-25T10:16:07.146Z,14.80
2022-10-25T10:18:36.606Z,14.80
2022-10-25T10:21:08.840Z,14.80
2022-10-25T10:24:13.133Z,14.80
2022-10-25T10:26:49.043Z,14.90
2022-10-25T10:29:21.519Z,14.90
2022-10-25T10:31:52.121Z,15.00
2022-10-25T10:34:31.075Z,15.00
2022-10-25T10:37:08.593Z,15.00
2022-10-25T10:39:36.653Z,15.00
2022-10-25T10:42:16.160Z,15.00
2022-10-25T10:45:02.694Z,15.10
2022-10-25T10:47:36.077Z,15.10
2022-10-25T10:50:12.403Z,15.10
2022-10-25T10:52:43.565Z,15.20
2022-10-25T10:55:18.900Z,15.20
2022-10-25T10:57:47.166Z,15.30
2022-10-25T11:00:23.840Z,15.30
2022-10-25T11:02:53.149Z,15.30
2022-10-25T11:05:26.452Z,15.30
2022-10-25T11:07:57.208Z,15.30
2022-10-25T11:10:28.341Z,15.40
2022-10-25T11:13:17.327Z,15.40
2022-10-25T11:16:02.247Z,15.50
2022-10-25T11:18:39.668Z,15.60
2022-10-25T11:21:18.111Z,15.70
2022-10-25T11:24:01.034Z,15.70
2022-10-25T11:26:38.151Z,15.80
2022-10-25T11:29:16.465Z,15.90
2022-10-25T11:31:58.543Z,16.00
2022-10-25T11:34:32.919Z,16.10
2022-10-25T11:37:09.963Z,16.10
2022-10-25T11:39:48.756Z,16.10
2022-10-25T11:42:41.334Z,16.20
2022-10-25T11:45:32.865Z,16.20
2022-10-25T11:48:15.901Z,16.30
2022-10-25T11:50:53.551Z,16.30
2022-10-25T11:53:37.613Z,16.40
2022-10-25T11:56:11.551Z,16.40
2022-10-25T11:58:51.379Z,16.50
2022-10-25T12:01:33.507Z,16.60
2022-10-25T12:04:26.876Z,16.70
2022-10-25T12:07:04.082Z,16.80
2022-10-25T12:09:42.289Z,16.80
2022-10-25T12:12:13.692Z,16.80
2022-10-25T12:14:45.637Z,16.90
2022-10-25T12:17:22.091Z,16.90
2022-10-25T12:19:51.929Z,17.00
2022-10-25T12:22:24.706Z,17.00
2022-10-25T12:24:59.130Z,17.10
2022-10-25T12:27:29.662Z,17.20
2022-10-25T12:30:04.267Z,17.20
2022-10-25T12:32:38.480Z,17.30
2022-10-25T12:35:17.275Z,17.30
2022-10-25T12:37:55.061Z,17.30
2022-10-25T12:40:29.663Z,17.40
2022-10-25T12:43:05.998Z,17.50
2022-10-25T12:46:09.078Z,17.50
2022-10-25T12:49:04.520Z,17.60
2022-10-25T12:51:56.370Z,17.60
2022-10-25T12:54:48.653Z,17.70
2022-10-25T12:57:26.770Z,17.70
2022-10-25T13:00:11.220Z,17.80
2022-10-25T13:03:19.287Z,17.80
2022-10-25T13:06:18.535Z,17.90
2022-10-25T13:08:47.237Z,17.90
2022-10-25T13:11:15.481Z,17.90
2022-10-25T13:13:51.369Z,17.90
2022-10-25T13:16:28.357Z,17.80
2022-10-25T13:19:42.808Z,17.80
2022-10-25T13:22:36.039Z,17.80
2022-10-25T13:25:17.564Z,17.70
2022-10-25T13:28:15.485Z,17.70
2022-10-25T13:30:45.447Z,17.70
2022-10-25T13:33:33.508Z,17.80
2022-10-25T13:36:06.033Z,17.90
2022-10-25T13:38:39.768Z,18.20
2022-10-25T13:41:16.466Z,18.40
2022-10-25T13:43:58.592Z,18.60
2022-10-25T13:46:32.886Z,18.90
2022-10-25T13:49:02.966Z,19.20
2022-10-25T13:51:32.911Z,19.60
2022-10-25T13:54:08.465Z,19.80
2022-10-25T13:59:38.733Z,20.40
2022-10-25T14:02:17.990Z,20.70
2022-10-25T14:04:46.472Z,21.00
2022-10-25T14:07:54.845Z,21.10
2022-10-25T14:10:27.573Z,21.30
2022-10-25T14:13:02.803Z,21.50
2022-10-25T14:15:49.004Z,21.80
2022-10-25T14:18:25.339Z,21.90
2022-10-25T14:20:56.437Z,22.00
2022-10-25T14:23:27.321Z,22.20
2022-10-25T14:25:57.505Z,22.30
2022-10-25T14:28:27.484Z,22.40
2022-10-25T14:30:57.841Z,22.50
2022-10-25T14:33:29.916Z,22.50
2022-10-25T14:36:07.625Z,22.60
2022-10-25T14:38:39.155Z,22.50
2022-10-25T14:41:13.372Z,22.60
2022-10-25T14:43:43.109Z,22.50
2022-10-25T14:46:14.643Z,22.50
2022-10-25T14:48:48.919Z,22.50
2022-10-25T14:51:22.105Z,22.50
2022-10-25T14:54:40.856Z,22.40
2022-10-25T14:57:34.673Z,22.30
2022-10-25T15:00:09.323Z,22.20
2022-10-25T15:02:40.140Z,22.10
2022-10-25T15:05:19.217Z,22.00
2022-10-25T15:07:49.073Z,22.00
2022-10-25T15:10:38.622Z,21.90
2022-10-25T15:13:14.353Z,21.80
2022-10-25T15:15:45.110Z,21.80
2022-10-25T15:18:35.401Z,21.70
2022-10-25T15:21:08.009Z,21.60
2022-10-25T15:23:36.989Z,21.50
2022-10-25T15:26:22.600Z,21.50
2022-10-25T15:28:52.144Z,21.40
2022-10-25T15:31:24.598Z,21.20
2022-10-25T15:34:00.346Z,21.10
2022-10-25T15:36:32.365Z,20.80
2022-10-25T15:39:10.188Z,20.60
2022-10-25T15:41:40.935Z,20.30
2022-10-25T15:44:08.927Z,20.10
2022-10-25T15:46:38.269Z,19.80
2022-10-25T15:49:08.303Z,19.60
2022-10-25T15:51:40.662Z,19.40
2022-10-25T15:54:14.667Z,19.20
2022-10-25T15:56:42.996Z,19.00
2022-10-25T15:59:11.068Z,18.70
2022-10-25T16:01:41.575Z,18.40
2022-10-25T16:04:15.177Z,18.20
2022-10-25T16:06:45.544Z,18.00
2022-10-25T16:09:13.788Z,17.90
2022-10-25T16:11:46.418Z,17.70
2022-10-25T16:14:25.700Z,17.50
2022-10-25T16:16:53.926Z,17.40
2022-10-25T16:19:22.578Z,17.20
2022-10-25T16:21:51.900Z,17.10
2022-10-25T16:24:20.191Z,16.90
2022-10-25T16:26:50.069Z,16.80
2022-10-25T16:29:21.077Z,16.60
2022-10-25T16:31:49.463Z,16.50
2022-10-25T16:34:19.370Z,16.30
2022-10-25T16:36:48.398Z,16.20
2022-10-25T16:39:18.162Z,16.10
2022-10-25T16:41:47.722Z,16.00
2022-10-25T16:44:18.192Z,15.90
2022-10-25T16:46:46.624Z,15.80
2022-10-25T16:49:14.839Z,15.70
2022-10-25T16:51:44.236Z,15.60
2022-10-25T16:54:12.968Z,15.50
2022-10-25T16:56:42.457Z,15.40
2022-10-25T16:59:10.424Z,15.30
2022-10-25T17:01:40.180Z,15.30
2022-10-25T17:04:11.411Z,15.20
2022-10-25T17:06:42.143Z,15.00
2022-10-25T17:09:11.408Z,14.90
2022-10-25T17:11:39.779Z,14.70
2022-10-25T17:14:10.101Z,14.60
2022-10-25T17:16:39.679Z,14.60
2022-10-25T17:19:07.703Z,14.50
2022-10-25T17:21:35.843Z,14.40
2022-10-25T17:24:04.556Z,14.40
2022-10-25T17:26:32.558Z,14.40
2022-10-25T17:29:01.150Z,14.30
2022-10-25T17:31:32.433Z,14.20
2022-10-25T17:34:01.088Z,14.10
2022-10-25T17:36:31.647Z,14.00
2022-10-25T17:39:00.349Z,13.90
2022-10-25T17:41:28.819Z,13.80
2022-10-25T17:43:57.092Z,13.70
2022-10-25T17:46:27.707Z,13.50
2022-10-25T17:49:02.959Z,13.40
2022-10-25T17:51:32.588Z,13.20
2022-10-25T17:54:00.974Z,13.10
2022-10-25T17:59:04.441Z,13.00
2022-10-25T18:01:35.406Z,12.90
2022-10-25T18:04:05.202Z,12.80
2022-10-25T18:06:33.311Z,12.80
2022-10-25T18:09:03.732Z,12.70
2022-10-25T18:11:31.770Z,12.60
2022-10-25T18:14:01.637Z,12.60
2022-10-25T18:16:31.098Z,12.50
2022-10-25T18:19:02.150Z,12.50
2022-10-25T18:21:32.813Z,12.40
2022-10-25T18:24:03.645Z,12.40
2022-10-25T18:27:00.226Z,12.40
2022-10-25T18:29:34.395Z,12.30
2022-10-25T18:32:02.542Z,12.20
2022-10-25T18:34:30.691Z,12.20
2022-10-25T18:37:00.037Z,12.20
2022-10-25T18:39:28.919Z,12.10
2022-10-25T18:41:58.221Z,12.20
2022-10-25T18:44:26.282Z,12.10
2022-10-25T18:46:55.851Z,12.10
2022-10-25T18:49:23.881Z,12.10
2022-10-25T18:51:51.842Z,12.10
2022-10-25T18:54:21.346Z,12.00
2022-10-25T18:56:49.396Z,12.00
2022-10-25T18:59:17.486Z,12.00
2022-10-25T19:01:45.590Z,11.90
2022-10-25T19:04:13.617Z,11.90
2022-10-25T19:06:41.634Z,11.80
2022-10-25T19:09:09.983Z,11.70
2022-10-25T19:11:39.578Z,11.70
2022-10-25T19:14:07.697Z,11.60
2022-10-25T19:16:37.408Z,11.50
2022-10-25T19:19:07.183Z,11.50
2022-10-25T19:21:36.208Z,11.50
2022-10-25T19:24:04.683Z,11.40
2022-10-25T19:26:32.719Z,11.40
2022-10-25T19:29:02.485Z,11.40
2022-10-25T19:31:30.708Z,11.40
2022-10-25T19:34:00.382Z,11.30
2022-10-25T19:36:28.743Z,11.30
2022-10-25T19:38:56.727Z,11.20
2022-10-25T19:41:25.742Z,11.20
2022-10-25T19:43:56.338Z,11.10
2022-10-25T19:46:26.263Z,11.10
2022-10-25T19:48:56.121Z,11.00
2022-10-25T19:51:24.445Z,11.00
2022-10-25T19:53:52.807Z,10.90
2022-10-25T19:56:22.902Z,10.90
2022-10-25T19:58:51.930Z,10.90
2022-10-25T20:01:23.359Z,10.90
2022-10-25T20:03:54.773Z,10.90
2022-10-25T20:06:25.341Z,10.90
2022-10-25T20:08:54.350Z,10.90
2022-10-25T20:11:23.550Z,10.90
2022-10-25T20:13:54.292Z,10.90
2022-10-25T20:16:22.974Z,10.90
2022-10-25T20:18:53.178Z,10.90
2022-10-25T20:21:24.048Z,10.90
2022-10-25T20:23:55.801Z,10.90
2022-10-25T20:26:25.827Z,10.90
2022-10-25T20:28:54.570Z,10.90
2022-10-25T20:31:23.545Z,10.90
2022-10-25T20:33:53.780Z,10.90
2022-10-25T20:36:22.676Z,10.80
2022-10-25T20:38:51.012Z,10.80
2022-10-25T20:41:20.442Z,10.80
2022-10-25T20:43:50.076Z,10.70
2022-10-25T20:46:19.506Z,10.80
2022-10-25T20:48:47.860Z,10.70
2022-10-25T20:51:17.854Z,10.70
2022-10-25T20:53:46.670Z,10.60
2022-10-25T20:56:14.784Z,10.60
2022-10-25T20:58:43.127Z,10.60
2022-10-25T21:01:12.004Z,10.60
2022-10-25T21:03:40.767Z,10.60
2022-10-25T21:06:10.495Z,10.60
2022-10-25T21:08:40.368Z,10.50
2022-10-25T21:11:11.072Z,10.50
2022-10-25T21:13:39.225Z,10.50
2022-10-25T21:16:08.989Z,10.40
2022-10-25T21:18:37.656Z,10.40
2022-10-25T21:21:07.464Z,10.30
2022-10-25T21:23:36.026Z,10.30
2022-10-25T21:26:07.334Z,10.30
2022-10-25T21:28:36.964Z,10.20
2022-10-25T21:31:06.396Z,10.20
2022-10-25T21:33:34.776Z,10.20
2022-10-25T21:36:08.033Z,10.20
2022-10-25T21:38:36.355Z,10.20
2022-10-25T21:41:11.034Z,10.10
2022-10-25T21:43:43.036Z,10.10
2022-10-25T21:46:11.339Z,10.10
2022-10-25T21:48:39.509Z,10.10
2022-10-25T21:51:07.757Z,10.10
2022-10-25T21:53:35.972Z,10.10
2022-10-25T21:56:11.477Z,10.00
2022-10-25T21:58:40.086Z,10.00
2022-10-25T22:01:09.650Z,10.00
2022-10-25T22:03:37.980Z,9.90
2022-10-25T22:06:07.303Z,9.90
2022-10-25T22:08:35.337Z,9.90
2022-10-25T22:11:06.284Z,9.80
2022-10-25T22:13:36.302Z,9.70
2022-10-25T22:16:07.364Z,9.70
2022-10-25T22:18:36.648Z,9.70
2022-10-25T22:21:07.402Z,9.70
2022-10-25T22:23:36.097Z,9.60
2022-10-25T22:26:06.147Z,9.60
2022-10-25T22:28:39.809Z,9.60
2022-10-25T22:31:10.806Z,9.60
2022-10-25T22:33:39.568Z,9.60
2022-10-25T22:36:09.466Z,9.60
2022-10-25T22:38:38.163Z,9.60
2022-10-25T22:41:08.100Z,9.60
2022-10-25T22:43:38.821Z,9.60
2022-10-25T22:46:09.215Z,9.60
2022-10-25T22:48:39.103Z,9.60
2022-10-25T22:51:09.626Z,9.60
2022-10-25T22:53:38.520Z,9.60
2022-10-25T22:56:08.670Z,9.60
2022-10-25T22:58:38.264Z,9.60
2022-10-25T23:01:07.995Z,9.60
2022-10-25T23:03:37.992Z,9.50
2022-10-25T23:06:07.399Z,9.50
2022-10-25T23:08:39.998Z,9.60
2022-10-25T23:11:10.670Z,9.60
2022-10-25T23:13:40.435Z,9.60
2022-10-25T23:16:09.139Z,9.60
2022-10-25T23:18:37.484Z,9.60
2022-10-25T23:21:07.041Z,9.60
2022-10-25T23:23:38.125Z,9.60
2022-10-25T23:28:41.634Z,9.60
2022-10-25T23:31:11.617Z,9.60
2022-10-25T23:33:39.937Z,9.60
2022-10-25T23:36:10.213Z,9.60
2022-10-25T23:38:38.717Z,9.60
2022-10-25T23:41:07.336Z,9.60
2022-10-25T23:43:36.186Z,9.60
2022-10-25T23:46:06.423Z,9.60
2022-10-25T23:48:34.678Z,9.60
2022-10-25T23:51:04.565Z,9.60
2022-10-25T23:53:32.963Z,9.60
2022-10-25T23:56:01.541Z,9.50
2022-10-25T23:58:30.554Z,9.50
